createdAt,value
2023-02-06T00:00:48.592Z,17.52
2023-02-06T00:03:15.196Z,20.95
2023-02-06T00:05:41.655Z,13.07
2023-02-06T00:08:08.235Z,15.98
2023-02-06T00:10:34.995Z,12.25
2023-02-06T00:13:01.472Z,12.95
2023-02-06T00:15:27.887Z,9.15
2023-02-06T00:17:54.246Z,13.90
2023-02-06T00:20:20.657Z,10.73
2023-02-06T00:22:47.139Z,16.05
2023-02-06T00:25:13.558Z,20.02
2023-02-06T00:27:39.939Z,15.98
2023-02-06T00:30:06.778Z,12.85
2023-02-06T00:32:34.789Z,16.17
2023-02-06T00:35:01.330Z,14.30
2023-02-06T00:37:27.783Z,15.65
2023-02-06T00:39:54.138Z,14.30
2023-02-06T00:42:20.698Z,17.02
2023-02-06T00:44:47.056Z,12.30
2023-02-06T00:47:13.454Z,19.67
2023-02-06T00:49:39.901Z,12.95
2023-02-06T00:52:06.278Z,16.52
2023-02-06T00:54:32.953Z,14.75
2023-02-06T00:56:59.476Z,24.08
2023-02-06T00:59:25.961Z,19.88
2023-02-06T01:01:52.426Z,12.75
2023-02-06T01:04:18.956Z,20.10
2023-02-06T01:06:45.376Z,15.50
2023-02-06T01:09:11.896Z,13.35
2023-02-06T01:11:38.288Z,12.38
2023-02-06T01:14:05.064Z,16.45
2023-02-06T01:16:31.533Z,8.65
2023-02-06T01:18:57.985Z,10.70
2023-02-06T01:21:25.370Z,20.45
2023-02-06T01:23:54.035Z,11.30
2023-02-06T01:26:24.147Z,8.38
2023-02-06T01:28:51.177Z,9.18
2023-02-06T01:31:19.256Z,12.13
2023-02-06T01:33:47.311Z,11.32
2023-02-06T01:36:14.742Z,13.90
2023-02-06T01:38:41.791Z,12.98
2023-02-06T01:41:10.169Z,9.13
2023-02-06T01:43:39.918Z,10.82
2023-02-06T01:46:07.044Z,12.02
2023-02-06T01:48:40.899Z,9.63
2023-02-06T01:51:18.236Z,8.90
2023-02-06T01:53:48.257Z,11.55
2023-02-06T01:56:19.372Z,12.70
2023-02-06T01:58:53.706Z,13.52
2023-02-06T02:01:21.031Z,12.50
2023-02-06T02:03:51.300Z,16.08
2023-02-06T02:06:20.759Z,15.45
2023-02-06T02:08:50.727Z,7.97
2023-02-06T02:11:21.561Z,9.60
2023-02-06T02:13:51.152Z,8.95
2023-02-06T02:16:46.918Z,14.43
2023-02-06T02:19:44.238Z,9.10
2023-02-06T02:22:13.288Z,9.60
2023-02-06T02:24:57.263Z,16.60
2023-02-06T02:27:44.764Z,5.67
2023-02-06T02:30:14.147Z,13.55
2023-02-06T02:32:58.664Z,12.30
2023-02-06T02:35:28.887Z,11.20
2023-02-06T02:38:18.315Z,10.80
2023-02-06T02:40:57.090Z,8.18
2023-02-06T02:43:42.546Z,6.30
2023-02-06T02:46:19.683Z,8.07
2023-02-06T02:48:50.849Z,8.65
2023-02-06T02:51:17.904Z,9.48
2023-02-06T02:53:44.744Z,9.18
2023-02-06T02:56:23.559Z,13.52
2023-02-06T02:59:10.639Z,16.85
2023-02-06T03:01:44.638Z,11.02
2023-02-06T03:04:18.410Z,6.43
2023-02-06T03:07:09.399Z,13.18
2023-02-06T03:10:08.036Z,12.00
2023-02-06T03:12:50.142Z,9.45
2023-02-06T03:15:41.654Z,12.40
2023-02-06T03:18:28.556Z,11.43
2023-02-06T03:20:55.180Z,8.13
2023-02-06T03:23:30.518Z,13.18
2023-02-06T03:26:01.843Z,9.82
2023-02-06T03:28:34.662Z,14.18
2023-02-06T03:31:04.680Z,11.18
2023-02-06T03:33:37.818Z,8.02
2023-02-06T03:36:05.344Z,14.13
2023-02-06T03:38:32.343Z,8.65
2023-02-06T03:41:00.420Z,11.13
2023-02-06T03:43:29.398Z,11.82
2023-02-06T03:46:04.217Z,9.40
2023-02-06T03:48:39.651Z,8.18
2023-02-06T03:51:14.388Z,11.10
2023-02-06T03:53:44.216Z,9.20
2023-02-06T03:56:38.299Z,14.95
2023-02-06T03:59:04.952Z,9.93
2023-02-06T04:01:31.724Z,15.38
2023-02-06T04:03:58.550Z,8.48
2023-02-06T04:06:24.955Z,6.35
2023-02-06T04:08:51.544Z,15.75
2023-02-06T04:11:18.025Z,18.73
2023-02-06T04:13:44.396Z,8.10
2023-02-06T04:16:10.783Z,10.63
2023-02-06T04:18:37.226Z,8.70
2023-02-06T04:21:05.427Z,12.80
2023-02-06T04:23:32.242Z,12.65
2023-02-06T04:25:58.694Z,13.88
2023-02-06T04:28:25.101Z,13.63
2023-02-06T04:30:51.765Z,13.82
2023-02-06T04:33:18.415Z,12.90
2023-02-06T04:35:44.781Z,12.18
2023-02-06T04:38:11.193Z,20.73
2023-02-06T04:40:37.663Z,12.73
2023-02-06T04:43:04.020Z,14.55
2023-02-06T04:45:30.392Z,10.07
2023-02-06T04:47:59.176Z,12.98
2023-02-06T04:50:28.194Z,14.32
2023-02-06T04:52:54.607Z,12.90
2023-02-06T04:55:22.507Z,19.65
2023-02-06T04:57:48.997Z,8.82
2023-02-06T05:00:15.979Z,13.15
2023-02-06T05:02:42.490Z,18.13
2023-02-06T05:05:09.368Z,14.57
2023-02-06T05:07:36.230Z,18.38
2023-02-06T05:10:03.296Z,16.48
2023-02-06T05:12:29.675Z,11.18
2023-02-06T05:14:56.354Z,12.30
2023-02-06T05:17:22.759Z,14.68
2023-02-06T05:19:49.201Z,11.75
2023-02-06T05:22:15.617Z,14.88
2023-02-06T05:24:41.994Z,15.45
2023-02-06T05:27:08.427Z,11.52
2023-02-06T05:29:34.891Z,12.15
2023-02-06T05:32:01.272Z,18.80
2023-02-06T05:34:27.703Z,18.27
2023-02-06T05:36:54.112Z,10.77
2023-02-06T05:39:21.098Z,13.35
2023-02-06T05:41:47.500Z,10.95
2023-02-06T05:44:13.903Z,13.63
2023-02-06T05:46:40.428Z,13.23
2023-02-06T05:49:06.967Z,7.97
2023-02-06T05:51:33.543Z,12.38
2023-02-06T05:53:59.921Z,15.60
2023-02-06T05:56:26.334Z,11.65
2023-02-06T05:58:53.055Z,12.65
2023-02-06T06:01:19.455Z,10.82
2023-02-06T06:03:46.006Z,12.10
2023-02-06T06:06:12.396Z,13.25
2023-02-06T06:08:38.771Z,15.85
2023-02-06T06:11:05.339Z,13.88
2023-02-06T06:13:32.448Z,10.98
2023-02-06T06:15:58.873Z,13.32
2023-02-06T06:18:26.482Z,16.20
2023-02-06T06:20:53.463Z,10.43
2023-02-06T06:23:19.986Z,7.10
2023-02-06T06:25:47.653Z,11.70
2023-02-06T06:28:14.059Z,15.50
2023-02-06T06:30:40.551Z,13.95
2023-02-06T06:33:06.939Z,9.43
2023-02-06T06:35:33.777Z,10.13
2023-02-06T06:38:00.237Z,14.38
2023-02-06T06:40:26.645Z,9.13
2023-02-06T06:42:53.123Z,15.60
2023-02-06T06:45:19.722Z,13.90
2023-02-06T06:47:46.331Z,15.40
2023-02-06T06:50:12.768Z,20.88
2023-02-06T06:52:39.169Z,12.90
2023-02-06T06:55:05.956Z,19.73
2023-02-06T06:57:32.681Z,13.65
2023-02-06T06:59:59.177Z,16.92
2023-02-06T07:02:25.759Z,8.40
2023-02-06T07:04:52.172Z,9.70
2023-02-06T07:07:18.645Z,18.98
2023-02-06T07:09:45.080Z,19.17
2023-02-06T07:12:11.485Z,10.80
2023-02-06T07:14:39.604Z,11.50
2023-02-06T07:17:05.997Z,20.95
2023-02-06T07:19:32.419Z,15.88
2023-02-06T07:21:58.883Z,14.02
2023-02-06T07:24:25.254Z,16.60
2023-02-06T07:26:51.707Z,14.65
2023-02-06T07:29:18.198Z,15.77
2023-02-06T07:31:44.748Z,16.25
2023-02-06T07:34:12.543Z,20.67
2023-02-06T07:36:39.018Z,14.50
2023-02-06T07:39:05.622Z,29.58
2023-02-06T07:41:31.978Z,14.77
2023-02-06T07:43:58.405Z,11.60
2023-02-06T07:46:24.881Z,16.90
2023-02-06T07:48:51.271Z,16.52
2023-02-06T07:51:17.823Z,12.20
2023-02-06T07:53:44.318Z,19.42
2023-02-06T07:56:13.701Z,21.90
2023-02-06T07:58:40.082Z,14.88
2023-02-06T08:01:06.822Z,19.27
2023-02-06T08:03:33.520Z,8.35
2023-02-06T08:06:00.095Z,13.52
2023-02-06T08:08:26.741Z,24.98
2023-02-06T08:10:53.129Z,21.35
2023-02-06T08:13:19.564Z,14.00
2023-02-06T08:15:46.018Z,16.02
2023-02-06T08:18:12.474Z,15.85
2023-02-06T08:20:38.850Z,15.70
2023-02-06T08:23:05.376Z,12.98
2023-02-06T08:25:31.866Z,13.25
2023-02-06T08:27:58.318Z,16.75
2023-02-06T08:30:24.843Z,14.93
2023-02-06T08:32:51.406Z,17.23
2023-02-06T08:35:17.924Z,23.63
2023-02-06T08:37:44.352Z,18.02
2023-02-06T08:40:11.280Z,18.02
2023-02-06T08:42:37.701Z,18.35
2023-02-06T08:45:04.644Z,16.60
2023-02-06T08:47:31.161Z,17.35
2023-02-06T08:49:57.513Z,21.63
2023-02-06T08:52:24.159Z,22.92
2023-02-06T08:54:51.986Z,23.10
2023-02-06T08:57:18.479Z,16.13
2023-02-06T08:59:44.899Z,24.90
2023-02-06T09:02:11.669Z,19.90
2023-02-06T09:04:39.110Z,17.60
2023-02-06T09:07:05.544Z,16.17
2023-02-06T09:09:32.033Z,21.33
2023-02-06T09:12:03.187Z,14.88
2023-02-06T09:14:30.551Z,19.30
2023-02-06T09:16:59.992Z,16.67
2023-02-06T09:19:26.883Z,23.98
2023-02-06T09:21:53.642Z,13.68
2023-02-06T09:24:20.385Z,19.23
2023-02-06T09:26:58.891Z,23.95
2023-02-06T09:29:28.658Z,27.25
2023-02-06T09:31:57.261Z,19.13
2023-02-06T09:34:26.190Z,25.13
2023-02-06T09:36:56.924Z,20.65
2023-02-06T09:39:24.377Z,20.23
2023-02-06T09:41:55.040Z,18.80
2023-02-06T09:44:29.599Z,26.23
2023-02-06T09:49:51.423Z,23.85
2023-02-06T09:52:47.655Z,11.98
2023-02-06T09:55:46.806Z,21.35
2023-02-06T09:58:22.585Z,22.27
2023-02-06T10:00:52.254Z,13.73
2023-02-06T10:03:39.440Z,19.92
2023-02-06T10:06:20.429Z,23.30
2023-02-06T10:09:10.146Z,10.98
2023-02-06T10:12:00.694Z,23.35
2023-02-06T10:14:46.807Z,15.70
2023-02-06T10:17:13.144Z,13.30
2023-02-06T10:19:49.435Z,10.85
2023-02-06T10:22:21.068Z,11.50
2023-02-06T10:25:06.084Z,19.10
2023-02-06T10:27:35.099Z,14.85
2023-02-06T10:30:01.782Z,10.25
2023-02-06T10:32:47.912Z,13.48
2023-02-06T10:35:29.468Z,15.05
2023-02-06T10:38:20.095Z,15.88
2023-02-06T10:40:54.590Z,13.65
2023-02-06T10:46:24.451Z,13.43
2023-02-06T10:49:05.282Z,7.90
2023-02-06T10:51:35.482Z,18.48
2023-02-06T10:54:15.035Z,20.17
2023-02-06T10:56:46.771Z,14.63
2023-02-06T10:59:22.660Z,11.13
2023-02-06T11:01:55.624Z,13.02
2023-02-06T11:04:30.320Z,14.23
2023-02-06T11:07:00.921Z,13.45
2023-02-06T11:09:27.484Z,12.63
2023-02-06T11:11:56.787Z,15.95
2023-02-06T11:14:27.837Z,15.90
2023-02-06T11:16:54.507Z,14.23
2023-02-06T11:19:37.312Z,10.20
2023-02-06T11:22:16.161Z,18.65
2023-02-06T11:25:19.157Z,8.63
2023-02-06T11:27:45.721Z,8.90
2023-02-06T11:30:36.693Z,12.70
2023-02-06T11:33:05.162Z,12.13
2023-02-06T11:35:38.038Z,13.93
2023-02-06T11:38:27.462Z,13.65
2023-02-06T11:41:02.644Z,7.60
2023-02-06T11:43:41.280Z,17.10
2023-02-06T11:46:16.841Z,10.90
2023-02-06T11:48:55.542Z,9.68
2023-02-06T11:51:23.670Z,4.40
2023-02-06T11:54:00.991Z,13.38
2023-02-06T11:56:29.147Z,11.98
2023-02-06T11:59:14.555Z,12.32
2023-02-06T12:01:45.269Z,11.70
2023-02-06T12:04:31.250Z,13.00
2023-02-06T12:07:29.923Z,12.10
2023-02-06T12:09:56.440Z,10.50
2023-02-06T12:12:28.976Z,13.05
2023-02-06T12:15:23.666Z,13.32
2023-02-06T12:17:56.889Z,9.80
2023-02-06T12:20:28.829Z,9.45
2023-02-06T12:23:00.152Z,12.25
2023-02-06T12:25:26.602Z,10.35
2023-02-06T12:27:56.452Z,10.80
2023-02-06T12:30:35.795Z,10.20
2023-02-06T12:33:33.387Z,16.48
2023-02-06T12:36:07.364Z,11.73
2023-02-06T12:39:00.927Z,8.80
2023-02-06T12:41:46.215Z,12.07
2023-02-06T12:44:28.354Z,8.13
2023-02-06T12:47:04.062Z,9.55
2023-02-06T12:49:39.759Z,5.53
2023-02-06T12:52:17.571Z,8.32
2023-02-06T12:54:51.414Z,10.43
2023-02-06T12:57:26.597Z,8.30
2023-02-06T13:00:01.784Z,9.68
2023-02-06T13:02:54.420Z,6.78
2023-02-06T13:05:27.887Z,12.00
2023-02-06T13:08:04.134Z,11.10
2023-02-06T13:10:30.594Z,8.93
2023-02-06T13:12:59.147Z,5.65
2023-02-06T13:15:36.167Z,10.85
2023-02-06T13:18:02.961Z,6.05
2023-02-06T13:20:30.141Z,7.32
2023-02-06T13:23:12.714Z,6.78
2023-02-06T13:25:39.208Z,6.10
2023-02-06T13:28:25.486Z,12.00
2023-02-06T13:31:04.533Z,6.80
2023-02-06T13:33:44.720Z,6.22
2023-02-06T13:36:25.437Z,6.53
2023-02-06T13:38:57.027Z,6.55
2023-02-06T13:41:34.837Z,7.78
2023-02-06T13:44:14.748Z,7.82
2023-02-06T13:47:00.537Z,7.25
2023-02-06T13:50:01.047Z,10.48
2023-02-06T13:52:38.915Z,10.10
2023-02-06T13:55:26.333Z,9.00
2023-02-06T13:58:20.103Z,6.65
2023-02-06T14:00:49.454Z,10.00
2023-02-06T14:03:28.531Z,8.93
2023-02-06T14:06:20.659Z,7.68
2023-02-06T14:09:02.181Z,11.70
2023-02-06T14:12:14.870Z,8.63
2023-02-06T14:14:49.437Z,5.50
2023-02-06T14:17:34.384Z,10.82
2023-02-06T14:20:19.708Z,10.13
2023-02-06T14:23:11.154Z,11.15
2023-02-06T14:26:09.896Z,13.40
2023-02-06T14:29:00.780Z,7.85
2023-02-06T14:31:47.694Z,6.05
2023-02-06T14:34:17.081Z,6.50
2023-02-06T14:37:04.045Z,9.88
2023-02-06T14:39:35.886Z,11.00
2023-02-06T14:42:15.161Z,6.13
2023-02-06T14:44:43.151Z,17.35
2023-02-06T14:47:18.431Z,10.25
2023-02-06T14:49:46.521Z,6.85
2023-02-06T14:52:21.955Z,8.40
2023-02-06T14:54:48.784Z,9.88
2023-02-06T14:57:26.594Z,8.15
2023-02-06T14:59:59.535Z,7.35
2023-02-06T15:02:35.240Z,8.05
2023-02-06T15:05:04.035Z,6.72
2023-02-06T15:07:36.456Z,11.20
2023-02-06T15:10:13.322Z,5.45
2023-02-06T15:12:39.980Z,11.23
2023-02-06T15:15:22.004Z,9.15
2023-02-06T15:18:01.735Z,12.20
2023-02-06T15:20:28.123Z,6.95
2023-02-06T15:23:08.049Z,3.00
2023-02-06T15:25:49.912Z,10.02
2023-02-06T15:28:19.200Z,6.88
2023-02-06T15:30:46.487Z,7.35
2023-02-06T15:33:20.557Z,13.23
2023-02-06T15:35:53.136Z,10.27
2023-02-06T15:38:21.258Z,19.35
2023-02-06T15:40:55.092Z,11.73
2023-02-06T15:43:25.390Z,11.02
2023-02-06T15:45:57.555Z,18.85
2023-02-06T15:48:43.648Z,17.00
2023-02-06T15:51:29.993Z,12.98
2023-02-06T15:54:09.097Z,13.07
2023-02-06T15:56:43.053Z,13.15
2023-02-06T15:59:20.360Z,16.67
2023-02-06T16:01:49.203Z,12.88
2023-02-06T16:04:19.628Z,10.82
2023-02-06T16:06:58.793Z,11.60
2023-02-06T16:09:25.937Z,9.70
2023-02-06T16:11:53.966Z,16.63
2023-02-06T16:14:35.939Z,10.95
2023-02-06T16:17:22.130Z,10.48
2023-02-06T16:19:54.604Z,8.23
2023-02-06T16:22:20.957Z,9.95
2023-02-06T16:24:48.508Z,14.98
2023-02-06T16:27:19.403Z,9.20
2023-02-06T16:29:51.795Z,13.45
2023-02-06T16:32:23.217Z,11.55
2023-02-06T16:34:49.815Z,10.65
2023-02-06T16:37:27.628Z,10.35
2023-02-06T16:39:54.836Z,8.05
2023-02-06T16:42:27.134Z,11.75
2023-02-06T16:44:59.452Z,11.00
2023-02-06T16:47:26.617Z,13.05
2023-02-06T16:49:53.119Z,12.38
2023-02-06T16:52:27.427Z,9.85
2023-02-06T16:55:04.266Z,14.85
2023-02-06T16:57:38.017Z,8.40
2023-02-06T17:00:15.740Z,11.20
2023-02-06T17:02:42.114Z,11.95
2023-02-06T17:05:08.599Z,14.45
2023-02-06T17:07:35.138Z,11.25
2023-02-06T17:10:02.344Z,8.82
2023-02-06T17:12:30.418Z,11.55
2023-02-06T17:14:56.914Z,11.27
2023-02-06T17:17:23.430Z,16.45
2023-02-06T17:19:52.202Z,10.60
2023-02-06T17:22:18.995Z,7.55
2023-02-06T17:24:45.466Z,10.75
2023-02-06T17:27:17.050Z,11.70
2023-02-06T17:29:46.257Z,11.18
2023-02-06T17:32:16.013Z,9.23
2023-02-06T17:34:42.346Z,12.18
2023-02-06T17:37:12.477Z,9.50
2023-02-06T17:39:38.839Z,12.65
2023-02-06T17:42:05.337Z,13.90
2023-02-06T17:44:31.710Z,19.88
2023-02-06T17:46:58.179Z,10.88
2023-02-06T17:49:24.548Z,16.40
2023-02-06T17:51:51.903Z,16.73
2023-02-06T17:54:18.298Z,15.00
2023-02-06T17:56:44.695Z,16.55
2023-02-06T17:59:11.094Z,25.05
2023-02-06T18:01:37.652Z,13.68
2023-02-06T18:04:04.525Z,20.42
2023-02-06T18:06:36.279Z,16.00
2023-02-06T18:09:03.149Z,16.23
2023-02-06T18:11:29.647Z,15.32
2023-02-06T18:13:56.096Z,18.15
2023-02-06T18:16:25.444Z,12.40
2023-02-06T18:18:52.233Z,15.20
2023-02-06T18:21:20.167Z,12.15
2023-02-06T18:23:47.941Z,12.25
2023-02-06T18:26:14.588Z,11.23
2023-02-06T18:28:41.012Z,10.20
2023-02-06T18:31:21.618Z,10.68
2023-02-06T18:33:48.039Z,9.90
2023-02-06T18:36:14.507Z,13.82
2023-02-06T18:38:41.486Z,13.95
2023-02-06T18:41:27.859Z,13.45
2023-02-06T18:43:54.257Z,13.75
2023-02-06T18:46:20.704Z,15.30
2023-02-06T18:48:47.120Z,15.63
2023-02-06T18:51:13.583Z,12.55
2023-02-06T18:53:39.991Z,20.90
2023-02-06T18:56:06.675Z,18.70
2023-02-06T18:58:33.138Z,12.85
2023-02-06T19:00:59.591Z,16.98
2023-02-06T19:03:26.023Z,19.08
2023-02-06T19:05:52.398Z,22.42
2023-02-06T19:08:19.590Z,21.70
2023-02-06T19:10:46.023Z,16.63
2023-02-06T19:13:12.473Z,16.15
2023-02-06T19:15:38.931Z,17.85
2023-02-06T19:18:06.082Z,17.27
2023-02-06T19:20:32.448Z,16.20
2023-02-06T19:22:58.870Z,14.35
2023-02-06T19:25:25.352Z,16.05
2023-02-06T19:27:51.807Z,17.42
2023-02-06T19:30:18.259Z,15.18
2023-02-06T19:32:44.833Z,16.90
2023-02-06T19:35:12.002Z,17.38
2023-02-06T19:37:38.416Z,16.40
2023-02-06T19:40:05.182Z,19.98
2023-02-06T19:42:31.586Z,19.73
2023-02-06T19:44:57.957Z,10.68
2023-02-06T19:47:24.415Z,12.27
2023-02-06T19:49:53.826Z,17.83
2023-02-06T19:52:20.542Z,14.27
2023-02-06T19:54:47.672Z,12.13
2023-02-06T19:57:14.848Z,17.85
2023-02-06T19:59:41.796Z,17.58
2023-02-06T20:02:15.756Z,15.63
2023-02-06T20:04:42.708Z,17.73
2023-02-06T20:07:09.219Z,12.63
2023-02-06T20:09:41.016Z,13.43
2023-02-06T20:12:10.139Z,12.75
2023-02-06T20:14:36.655Z,16.85
2023-02-06T20:17:03.142Z,18.05
2023-02-06T20:19:29.718Z,16.05
2023-02-06T20:21:58.811Z,15.40
2023-02-06T20:24:28.075Z,16.58
2023-02-06T20:26:58.445Z,14.73
2023-02-06T20:29:27.844Z,18.33
2023-02-06T20:31:55.379Z,17.38
2023-02-06T20:34:23.006Z,17.80
2023-02-06T20:36:50.683Z,17.10
2023-02-06T20:39:17.263Z,19.35
2023-02-06T20:41:45.562Z,16.50
2023-02-06T20:44:13.535Z,20.40
2023-02-06T20:46:40.847Z,22.80
2023-02-06T20:49:13.781Z,18.67
2023-02-06T20:51:40.175Z,15.82
2023-02-06T20:54:06.739Z,21.50
2023-02-06T20:56:34.399Z,27.95
2023-02-06T20:59:01.318Z,23.25
2023-02-06T21:01:30.733Z,20.63
2023-02-06T21:04:03.859Z,20.48
2023-02-06T21:06:31.466Z,22.67
2023-02-06T21:09:00.219Z,21.67
2023-02-06T21:11:33.023Z,21.17
2023-02-06T21:14:02.319Z,18.30
2023-02-06T21:16:30.819Z,24.77
2023-02-06T21:18:58.680Z,20.58
2023-02-06T21:21:26.151Z,20.50
2023-02-06T21:23:55.660Z,18.23
2023-02-06T21:26:23.888Z,25.00
2023-02-06T21:28:51.373Z,23.05
2023-02-06T21:31:24.075Z,23.17
2023-02-06T21:33:52.149Z,25.88
2023-02-06T21:36:21.004Z,22.25
2023-02-06T21:38:47.428Z,20.85
2023-02-06T21:41:16.838Z,19.70
2023-02-06T21:43:43.941Z,31.40
2023-02-06T21:46:11.227Z,20.10
2023-02-06T21:48:38.774Z,23.08
2023-02-06T21:51:16.378Z,20.90
2023-02-06T21:53:44.019Z,22.17
2023-02-06T21:56:14.858Z,20.83
2023-02-06T21:58:41.322Z,20.63
2023-02-06T22:01:09.009Z,30.60
2023-02-06T22:03:35.875Z,21.98
2023-02-06T22:06:11.597Z,21.23
2023-02-06T22:08:40.500Z,24.27
2023-02-06T22:11:15.662Z,24.75
2023-02-06T22:13:42.769Z,25.15
2023-02-06T22:16:11.100Z,23.25
2023-02-06T22:18:38.263Z,23.52
2023-02-06T22:21:16.256Z,23.48
2023-02-06T22:23:43.838Z,21.15
2023-02-06T22:26:12.534Z,24.27
2023-02-06T22:28:39.459Z,27.60
2023-02-06T22:31:08.471Z,24.45
2023-02-06T22:33:35.126Z,28.30
2023-02-06T22:36:06.649Z,25.38
2023-02-06T22:38:33.572Z,26.33
2023-02-06T22:41:02.062Z,26.80
2023-02-06T22:43:30.056Z,22.60
2023-02-06T22:45:56.590Z,29.17
2023-02-06T22:48:22.996Z,22.42
2023-02-06T22:50:50.309Z,27.55
2023-02-06T22:53:31.869Z,25.55
2023-02-06T22:56:31.147Z,23.42
2023-02-06T22:59:01.067Z,24.58
2023-02-06T23:01:49.751Z,21.33
2023-02-06T23:04:20.152Z,21.40
2023-02-06T23:06:47.544Z,20.42
2023-02-06T23:09:17.517Z,18.23
2023-02-06T23:11:44.987Z,21.35
2023-02-06T23:14:13.215Z,23.40
2023-02-06T23:16:39.866Z,23.15
2023-02-06T23:19:07.146Z,20.15
2023-02-06T23:21:37.100Z,21.17
2023-02-06T23:24:05.766Z,22.67
2023-02-06T23:26:32.868Z,22.92
2023-02-06T23:29:01.144Z,15.60
2023-02-06T23:31:28.171Z,20.33
2023-02-06T23:33:55.172Z,18.40
2023-02-06T23:36:24.279Z,21.80
2023-02-06T23:38:51.196Z,17.02
2023-02-06T23:41:20.971Z,21.52
2023-02-06T23:43:58.425Z,24.25
2023-02-06T23:46:26.083Z,17.27
2023-02-06T23:48:52.860Z,16.85
2023-02-06T23:51:20.518Z,17.17
2023-02-06T23:53:48.066Z,22.83
2023-02-06T23:56:23.778Z,22.83
2023-02-06T23:58:50.709Z,17.63
